<?xml version="1.0" encoding="UTF-8" standalone="no" ?><gpx xmlns="http://www.topografix.com/GPX/1/1" xmlns:gpxx="http://www.garmin.com/xmlschemas/GpxExtensions/v3" xmlns:gpxtrkx="http://www.garmin.com/xmlschemas/TrackStatsExtension/v1" xmlns:wptx1="http://www.garmin.com/xmlschemas/WaypointExtension/v1" xmlns:gpxtpx="http://www.garmin.com/xmlschemas/TrackPointExtension/v1" creator="Oregon 700" version="1.1" xmlns:xsi="http://www.w3.org/2001/XMLSchema-instance" xsi:schemaLocation="http://www.topografix.com/GPX/1/1 http://www.topografix.com/GPX/1/1/gpx.xsd http://www.garmin.com/xmlschemas/GpxExtensions/v3 http://www8.garmin.com/xmlschemas/GpxExtensionsv3.xsd http://www.garmin.com/xmlschemas/TrackStatsExtension/v1 http://www8.garmin.com/xmlschemas/TrackStatsExtension.xsd http://www.garmin.com/xmlschemas/WaypointExtension/v1 http://www8.garmin.com/xmlschemas/WaypointExtensionv1.xsd http://www.garmin.com/xmlschemas/TrackPointExtension/v1 http://www.garmin.com/xmlschemas/TrackPointExtensionv1.xsd"><metadata><link href="http://www.garmin.com"><text>Garmin International</text></link><time>2023-10-04T18:34:15Z</time></metadata><trk><name>Current Track: 04 OCT 2023 09:58</name><extensions><gpxx:TrackExtension><gpxx:DisplayColor>Cyan</gpxx:DisplayColor></gpxx:TrackExtension><gpxtrkx:TrackStatsExtension><gpxtrkx:Distance>6025.000</gpxtrkx:Distance><gpxtrkx:TimerTime>8853</gpxtrkx:TimerTime><gpxtrkx:TotalElapsedTime>34539</gpxtrkx:TotalElapsedTime><gpxtrkx:MovingTime>7182</gpxtrkx:MovingTime><gpxtrkx:StoppedTime>1671</gpxtrkx:StoppedTime><gpxtrkx:MovingSpeed>0.839</gpxtrkx:MovingSpeed><gpxtrkx:MaxSpeed>1.275</gpxtrkx:MaxSpeed><gpxtrkx:MaxElevation>0.000</gpxtrkx:MaxElevation><gpxtrkx:MinElevation>-168.855</gpxtrkx:MinElevation><gpxtrkx:Ascent>9.000</gpxtrkx:Ascent><gpxtrkx:Descent>6.463</gpxtrkx:Descent><gpxtrkx:AvgAscentRate>0.007</gpxtrkx:AvgAscentRate><gpxtrkx:MaxAscentRate>0.019</gpxtrkx:MaxAscentRate><gpxtrkx:AvgDescentRate>0.007</gpxtrkx:AvgDescentRate><gpxtrkx:MaxDescentRate>-0.019</gpxtrkx:MaxDescentRate><gpxtrkx:Calories>263</gpxtrkx:Calories></gpxtrkx:TrackStatsExtension></extensions><trkseg><trkpt lat="51.7356416490" lon="-2.3954045121"><ele>-167.47</ele><time>2023-10-04T08:58:37Z</time></trkpt><trkpt lat="51.7356296629" lon="-2.3953599203"><ele>-168.26</ele><time>2023-10-04T08:59:08Z</time></trkpt><trkpt lat="51.7356392182" lon="-2.3953529634"><ele>-168.46</ele><time>2023-10-04T08:59:27Z</time></trkpt><trkpt lat="51.7356209457" lon="-2.3953372892"><ele>-168.53</ele><time>2023-10-04T08:59:54Z</time></trkpt><trkpt lat="51.7356539704" lon="-2.3952814657"><ele>-168.53</ele><time>2023-10-04T09:00:20Z</time></trkpt><trkpt lat="51.7356960475" lon="-2.3952594213"><ele>-168.53</ele><time>2023-10-04T09:00:43Z</time></trkpt><trkpt lat="51.7357697245" lon="-2.3951693159"><ele>-168.53</ele><time>2023-10-04T09:01:00Z</time></trkpt><trkpt lat="51.7358174175" lon="-2.3951646220"><ele>-168.53</ele><time>2023-10-04T09:01:16Z</time></trkpt><trkpt lat="51.7358782701" lon="-2.3952650372"><ele>-168.53</ele><time>2023-10-04T09:01:31Z</time></trkpt><trkpt lat="51.7359207664" lon="-2.3953617644"><ele>-168.53</ele><time>2023-10-04T09:01:50Z</time></trkpt><trkpt lat="51.7360358499" lon="-2.3955406342"><ele>-168.53</ele><time>2023-10-04T09:02:19Z</time></trkpt><trkpt lat="51.7360863090" lon="-2.3956169095"><ele>-168.53</ele><time>2023-10-04T09:02:40Z</time></trkpt><trkpt lat="51.7360868119" lon="-2.3956174124"><ele>-165.33</ele><time>2023-10-04T09:02:43Z</time></trkpt><trkpt lat="51.7360883206" lon="-2.3956170771"><ele>-165.33</ele><time>2023-10-04T09:02:44Z</time></trkpt><trkpt lat="51.7361762468" lon="-2.3957155645"><ele>-165.16</ele><time>2023-10-04T09:03:09Z</time></trkpt><trkpt lat="51.7362421285" lon="-2.3958997149"><ele>-165.61</ele><time>2023-10-04T09:03:27Z</time></trkpt><trkpt lat="51.7361897416" lon="-2.3960328195"><ele>-165.75</ele><time>2023-10-04T09:03:47Z</time></trkpt><trkpt lat="51.7361589801" lon="-2.3961329833"><ele>-165.75</ele><time>2023-10-04T09:04:15Z</time></trkpt><trkpt lat="51.7361558788" lon="-2.3961128667"><ele>-165.75</ele><time>2023-10-04T09:04:40Z</time></trkpt><trkpt lat="51.7361588124" lon="-2.3960748129"><ele>-165.75</ele><time>2023-10-04T09:05:05Z</time></trkpt><trkpt lat="51.7361474130" lon="-2.3961804248"><ele>-165.75</ele><time>2023-10-04T09:05:24Z</time></trkpt><trkpt lat="51.7360361014" lon="-2.3964192253"><ele>-165.75</ele><time>2023-10-04T09:05:46Z</time></trkpt><trkpt lat="51.7359854747" lon="-2.3965267651"><ele>-165.75</ele><time>2023-10-04T09:06:12Z</time></trkpt><trkpt lat="51.7358740792" lon="-2.3967482150"><ele>-165.75</ele><time>2023-10-04T09:06:37Z</time></trkpt><trkpt lat="51.7357987259" lon="-2.3969559185"><ele>-165.75</ele><time>2023-10-04T09:07:02Z</time></trkpt><trkpt lat="51.7357085366" lon="-2.3972111475"><ele>-165.75</ele><time>2023-10-04T09:07:27Z</time></trkpt><trkpt lat="51.7356071156" lon="-2.3974547256"><ele>-165.75</ele><time>2023-10-04T09:07:51Z</time></trkpt><trkpt lat="51.7354842369" lon="-2.3977488466"><ele>-165.75</ele><time>2023-10-04T09:08:19Z</time></trkpt><trkpt lat="51.7354277428" lon="-2.3978708033"><ele>-165.75</ele><time>2023-10-04T09:08:40Z</time></trkpt><trkpt lat="51.7353603523" lon="-2.3980106972"><ele>-167.29</ele><time>2023-10-04T09:09:01Z</time></trkpt><trkpt lat="51.7352187820" lon="-2.3983500805"><ele>-167.64</ele><time>2023-10-04T09:09:27Z</time></trkpt><trkpt lat="51.7351477873" lon="-2.3985369969"><ele>-167.70</ele><time>2023-10-04T09:09:48Z</time></trkpt><trkpt lat="51.7350914609" lon="-2.3987374082"><ele>-167.80</ele><time>2023-10-04T09:10:06Z</time></trkpt><trkpt lat="51.7349476274" lon="-2.3990425933"><ele>-167.34</ele><time>2023-10-04T09:10:35Z</time></trkpt><trkpt lat="51.7348382436" lon="-2.3993031867"><ele>-167.34</ele><time>2023-10-04T09:10:57Z</time></trkpt><trkpt lat="51.7347572744" lon="-2.3995713238"><ele>-167.34</ele><time>2023-10-04T09:11:21Z</time></trkpt><trkpt lat="51.7346675880" lon="-2.3998143990"><ele>-167.34</ele><time>2023-10-04T09:11:44Z</time></trkpt><trkpt lat="51.7345646583" lon="-2.4000971206"><ele>-167.34</ele><time>2023-10-04T09:12:08Z</time></trkpt><trkpt lat="51.7344623990" lon="-2.4003619887"><ele>-167.34</ele><time>2023-10-04T09:12:31Z</time></trkpt><trkpt lat="51.7343765683" lon="-2.4005892221"><ele>-167.34</ele><time>2023-10-04T09:12:55Z</time></trkpt><trkpt lat="51.7342761531" lon="-2.4009107519"><ele>-167.34</ele><time>2023-10-04T09:13:23Z</time></trkpt><trkpt lat="51.7341619078" lon="-2.4011387397"><ele>-167.32</ele><time>2023-10-04T09:13:44Z</time></trkpt><trkpt lat="51.7340973672" lon="-2.4013623688"><ele>-167.49</ele><time>2023-10-04T09:14:05Z</time></trkpt><trkpt lat="51.7339928448" lon="-2.4016476888"><ele>-167.42</ele><time>2023-10-04T09:14:32Z</time></trkpt><trkpt lat="51.7339037452" lon="-2.4019613396"><ele>-167.46</ele><time>2023-10-04T09:15:03Z</time></trkpt><trkpt lat="51.7338638473" lon="-2.4021281395"><ele>-167.30</ele><time>2023-10-04T09:15:27Z</time></trkpt><trkpt lat="51.7338475026" lon="-2.4021741562"><ele>-167.30</ele><time>2023-10-04T09:15:53Z</time></trkpt><trkpt lat="51.7337715626" lon="-2.4024390243"><ele>-167.30</ele><time>2023-10-04T09:16:17Z</time></trkpt><trkpt lat="51.7336835526" lon="-2.4027121067"><ele>-167.30</ele><time>2023-10-04T09:16:45Z</time></trkpt><trkpt lat="51.7336223647" lon="-2.4029084109"><ele>-167.30</ele><time>2023-10-04T09:17:04Z</time></trkpt><trkpt lat="51.7335910164" lon="-2.4030657392"><ele>-167.30</ele><time>2023-10-04T09:17:19Z</time></trkpt><trkpt lat="51.7335082032" lon="-2.4033676554"><ele>-167.30</ele><time>2023-10-04T09:17:43Z</time></trkpt><trkpt lat="51.7334434949" lon="-2.4035949726"><ele>-167.30</ele><time>2023-10-04T09:18:05Z</time></trkpt><trkpt lat="51.7333673872" lon="-2.4038123153"><ele>-167.31</ele><time>2023-10-04T09:18:27Z</time></trkpt><trkpt lat="51.7333099712" lon="-2.4040428177"><ele>-167.31</ele><time>2023-10-04T09:18:47Z</time></trkpt><trkpt lat="51.7332092207" lon="-2.4043318257"><ele>-167.31</ele><time>2023-10-04T09:19:15Z</time></trkpt><trkpt lat="51.7331280001" lon="-2.4046111945"><ele>-167.31</ele><time>2023-10-04T09:19:40Z</time></trkpt><trkpt lat="51.7331020162" lon="-2.4048929941"><ele>-167.31</ele><time>2023-10-04T09:20:04Z</time></trkpt><trkpt lat="51.7330361344" lon="-2.4051100016"><ele>-167.31</ele><time>2023-10-04T09:20:21Z</time></trkpt><trkpt lat="51.7329811491" lon="-2.4054385722"><ele>-167.31</ele><time>2023-10-04T09:20:51Z</time></trkpt><trkpt lat="51.7329625413" lon="-2.4055724312"><ele>-167.31</ele><time>2023-10-04T09:21:18Z</time></trkpt><trkpt lat="51.7329320312" lon="-2.4056532327"><ele>-167.31</ele><time>2023-10-04T09:22:06Z</time></trkpt><trkpt lat="51.7329270858" lon="-2.4058452621"><ele>-167.31</ele><time>2023-10-04T09:22:26Z</time></trkpt><trkpt lat="51.7329026945" lon="-2.4061287381"><ele>-167.31</ele><time>2023-10-04T09:22:51Z</time></trkpt><trkpt lat="51.7328933906" lon="-2.4063968752"><ele>-167.31</ele><time>2023-10-04T09:23:13Z</time></trkpt><trkpt lat="51.7328897864" lon="-2.4066666886"><ele>-167.31</ele><time>2023-10-04T09:23:36Z</time></trkpt><trkpt lat="51.7328793090" lon="-2.4069965165"><ele>-167.31</ele><time>2023-10-04T09:24:01Z</time></trkpt><trkpt lat="51.7328923009" lon="-2.4073271826"><ele>-167.31</ele><time>2023-10-04T09:24:26Z</time></trkpt><trkpt lat="51.7329347972" lon="-2.4076901190"><ele>-167.31</ele><time>2023-10-04T09:24:53Z</time></trkpt><trkpt lat="51.7329311091" lon="-2.4080033507"><ele>-167.31</ele><time>2023-10-04T09:25:20Z</time></trkpt><trkpt lat="51.7329002637" lon="-2.4082553945"><ele>-167.31</ele><time>2023-10-04T09:25:42Z</time></trkpt><trkpt lat="51.7329176981" lon="-2.4083665386"><ele>-167.31</ele><time>2023-10-04T09:25:50Z</time></trkpt><trkpt lat="51.7329505552" lon="-2.4086842127"><ele>-167.31</ele><time>2023-10-04T09:26:12Z</time></trkpt><trkpt lat="51.7329010181" lon="-2.4089619052"><ele>-167.31</ele><time>2023-10-04T09:26:38Z</time></trkpt><trkpt lat="51.7328934744" lon="-2.4091675971"><ele>-167.31</ele><time>2023-10-04T09:27:02Z</time></trkpt><trkpt lat="51.7328924686" lon="-2.4093717802"><ele>-167.31</ele><time>2023-10-04T09:27:26Z</time></trkpt><trkpt lat="51.7328925524" lon="-2.4095039628"><ele>-167.31</ele><time>2023-10-04T09:27:50Z</time></trkpt><trkpt lat="51.7328881100" lon="-2.4097762909"><ele>-167.31</ele><time>2023-10-04T09:28:13Z</time></trkpt><trkpt lat="51.7328744475" lon="-2.4098195415"><ele>-167.31</ele><time>2023-10-04T09:28:38Z</time></trkpt><trkpt lat="51.7328950670" lon="-2.4099907000"><ele>-167.31</ele><time>2023-10-04T09:29:03Z</time></trkpt><trkpt lat="51.7328891158" lon="-2.4102021754"><ele>-167.31</ele><time>2023-10-04T09:29:25Z</time></trkpt><trkpt lat="51.7329122499" lon="-2.4104264751"><ele>-167.31</ele><time>2023-10-04T09:29:47Z</time></trkpt><trkpt lat="51.7328933068" lon="-2.4107469991"><ele>-167.31</ele><time>2023-10-04T09:30:10Z</time></trkpt><trkpt lat="51.7328841705" lon="-2.4109882303"><ele>-167.31</ele><time>2023-10-04T09:30:31Z</time></trkpt><trkpt lat="51.7328929715" lon="-2.4110893998"><ele>-167.31</ele><time>2023-10-04T09:30:54Z</time></trkpt><trkpt lat="51.7328838352" lon="-2.4113800842"><ele>-168.73</ele><time>2023-10-04T09:31:13Z</time></trkpt><trkpt lat="51.7329100706" lon="-2.4115852732"><ele>-168.33</ele><time>2023-10-04T09:31:33Z</time></trkpt><trkpt lat="51.7329105735" lon="-2.4118006043"><ele>-168.41</ele><time>2023-10-04T09:31:55Z</time></trkpt><trkpt lat="51.7329093162" lon="-2.4121496268"><ele>-168.52</ele><time>2023-10-04T09:32:18Z</time></trkpt><trkpt lat="51.7328945640" lon="-2.4125128146"><ele>-168.53</ele><time>2023-10-04T09:32:46Z</time></trkpt><trkpt lat="51.7329169437" lon="-2.4128176644"><ele>-168.53</ele><time>2023-10-04T09:33:09Z</time></trkpt><trkpt lat="51.7329192068" lon="-2.4131174851"><ele>-168.53</ele><time>2023-10-04T09:33:32Z</time></trkpt><trkpt lat="51.7329082265" lon="-2.4133835267"><ele>-168.53</ele><time>2023-10-04T09:33:55Z</time></trkpt><trkpt lat="51.7329236493" lon="-2.4136692658"><ele>-168.53</ele><time>2023-10-04T09:34:19Z</time></trkpt><trkpt lat="51.7329472862" lon="-2.4138279352"><ele>-168.53</ele><time>2023-10-04T09:34:38Z</time></trkpt><trkpt lat="51.7329249065" lon="-2.4140908755"><ele>-168.53</ele><time>2023-10-04T09:35:01Z</time></trkpt><trkpt lat="51.7329287622" lon="-2.4142525624"><ele>-168.53</ele><time>2023-10-04T09:35:24Z</time></trkpt><trkpt lat="51.7328869365" lon="-2.4142790493"><ele>-168.53</ele><time>2023-10-04T09:35:46Z</time></trkpt><trkpt lat="51.7328660656" lon="-2.4143772852"><ele>-168.53</ele><time>2023-10-04T09:36:13Z</time></trkpt><trkpt lat="51.7328937259" lon="-2.4146978930"><ele>-168.53</ele><time>2023-10-04T09:36:37Z</time></trkpt><trkpt lat="51.7329259124" lon="-2.4149749987"><ele>-168.53</ele><time>2023-10-04T09:37:02Z</time></trkpt><trkpt lat="51.7329396587" lon="-2.4152697902"><ele>-168.53</ele><time>2023-10-04T09:37:27Z</time></trkpt><trkpt lat="51.7329513095" lon="-2.4154810980"><ele>-168.53</ele><time>2023-10-04T09:37:52Z</time></trkpt><trkpt lat="51.7329778802" lon="-2.4156988598"><ele>-168.53</ele><time>2023-10-04T09:38:17Z</time></trkpt><trkpt lat="51.7329826578" lon="-2.4159379117"><ele>-168.53</ele><time>2023-10-04T09:38:39Z</time></trkpt><trkpt lat="51.7329467833" lon="-2.4162847549"><ele>-168.53</ele><time>2023-10-04T09:39:03Z</time></trkpt><trkpt lat="51.7329463642" lon="-2.4163108226"><ele>-168.53</ele><time>2023-10-04T09:39:29Z</time></trkpt><trkpt lat="51.7329571769" lon="-2.4163056258"><ele>-168.53</ele><time>2023-10-04T09:39:54Z</time></trkpt><trkpt lat="51.7329249065" lon="-2.4162757862"><ele>-168.53</ele><time>2023-10-04T09:40:22Z</time></trkpt><trkpt lat="51.7329321988" lon="-2.4162711762"><ele>-168.53</ele><time>2023-10-04T09:40:44Z</time></trkpt><trkpt lat="51.7329943087" lon="-2.4162994232"><ele>-168.53</ele><time>2023-10-04T09:41:07Z</time></trkpt><trkpt lat="51.7329720967" lon="-2.4162715115"><ele>-168.53</ele><time>2023-10-04T09:41:30Z</time></trkpt><trkpt lat="51.7329500522" lon="-2.4162958190"><ele>-168.53</ele><time>2023-10-04T09:41:52Z</time></trkpt><trkpt lat="51.7329464480" lon="-2.4163125828"><ele>-168.53</ele><time>2023-10-04T09:42:15Z</time></trkpt><trkpt lat="51.7329572607" lon="-2.4163219705"><ele>-168.53</ele><time>2023-10-04T09:42:38Z</time></trkpt><trkpt lat="51.7330134194" lon="-2.4164088909"><ele>-168.20</ele><time>2023-10-04T09:43:01Z</time></trkpt><trkpt lat="51.7330239806" lon="-2.4164196197"><ele>-167.87</ele><time>2023-10-04T09:43:28Z</time></trkpt><trkpt lat="51.7329724319" lon="-2.4163465295"><ele>-167.51</ele><time>2023-10-04T09:44:12Z</time></trkpt><trkpt lat="51.7329569254" lon="-2.4163248204"><ele>-167.51</ele><time>2023-10-04T09:44:41Z</time></trkpt><trkpt lat="51.7329839151" lon="-2.4163526483"><ele>-167.51</ele><time>2023-10-04T09:45:05Z</time></trkpt><trkpt lat="51.7329715099" lon="-2.4163185339"><ele>-167.51</ele><time>2023-10-04T09:45:28Z</time></trkpt><trkpt lat="51.7329646368" lon="-2.4163319450"><ele>-167.51</ele><time>2023-10-04T09:45:54Z</time></trkpt><trkpt lat="51.7329242360" lon="-2.4163082242"><ele>-167.51</ele><time>2023-10-04T09:46:21Z</time></trkpt><trkpt lat="51.7329259124" lon="-2.4163052067"><ele>-167.51</ele><time>2023-10-04T09:46:44Z</time></trkpt><trkpt lat="51.7329504713" lon="-2.4162820727"><ele>-167.51</ele><time>2023-10-04T09:47:11Z</time></trkpt><trkpt lat="51.7329537403" lon="-2.4163127504"><ele>-167.51</ele><time>2023-10-04T09:47:38Z</time></trkpt><trkpt lat="51.7329585180" lon="-2.4163174443"><ele>-167.51</ele><time>2023-10-04T09:48:02Z</time></trkpt><trkpt lat="51.7329489626" lon="-2.4162990041"><ele>-167.51</ele><time>2023-10-04T09:48:22Z</time></trkpt><trkpt lat="51.7329480406" lon="-2.4163266644"><ele>-167.51</ele><time>2023-10-04T09:48:48Z</time></trkpt><trkpt lat="51.7329728510" lon="-2.4163320288"><ele>-167.51</ele><time>2023-10-04T09:49:13Z</time></trkpt><trkpt lat="51.7330117431" lon="-2.4163296819"><ele>-167.51</ele><time>2023-10-04T09:49:38Z</time></trkpt><trkpt lat="51.7329801433" lon="-2.4163261615"><ele>-167.51</ele><time>2023-10-04T09:50:03Z</time></trkpt><trkpt lat="51.7329863459" lon="-2.4163211323"><ele>-167.51</ele><time>2023-10-04T09:50:29Z</time></trkpt><trkpt lat="51.7329792213" lon="-2.4163068831"><ele>-167.51</ele><time>2023-10-04T09:50:53Z</time></trkpt><trkpt lat="51.7329920456" lon="-2.4163472001"><ele>-167.51</ele><time>2023-10-04T09:51:17Z</time></trkpt><trkpt lat="51.7330035288" lon="-2.4163904507"><ele>-167.51</ele><time>2023-10-04T09:51:41Z</time></trkpt><trkpt lat="51.7330061272" lon="-2.4163956475"><ele>-167.51</ele><time>2023-10-04T09:52:03Z</time></trkpt><trkpt lat="51.7329774611" lon="-2.4163420033"><ele>-167.51</ele><time>2023-10-04T09:52:29Z</time></trkpt><trkpt lat="51.7329637986" lon="-2.4163016025"><ele>-167.51</ele><time>2023-10-04T09:52:58Z</time></trkpt><trkpt lat="51.7329878546" lon="-2.4163196236"><ele>-167.51</ele><time>2023-10-04T09:53:22Z</time></trkpt><trkpt lat="51.7329751980" lon="-2.4163217191"><ele>-167.51</ele><time>2023-10-04T09:53:53Z</time></trkpt><trkpt lat="51.7329952307" lon="-2.4163114093"><ele>-167.51</ele><time>2023-10-04T09:54:17Z</time></trkpt><trkpt lat="51.7329946440" lon="-2.4163269158"><ele>-167.51</ele><time>2023-10-04T09:54:45Z</time></trkpt><trkpt lat="51.7329963204" lon="-2.4163391534"><ele>-167.51</ele><time>2023-10-04T09:55:12Z</time></trkpt><trkpt lat="51.7329859268" lon="-2.4163589347"><ele>-167.51</ele><time>2023-10-04T09:55:40Z</time></trkpt><trkpt lat="51.7329762876" lon="-2.4163453560"><ele>-167.51</ele><time>2023-10-04T09:56:04Z</time></trkpt><trkpt lat="51.7329561710" lon="-2.4163453560"><ele>-167.51</ele><time>2023-10-04T09:56:27Z</time></trkpt><trkpt lat="51.7329667322" lon="-2.4163474515"><ele>-167.51</ele><time>2023-10-04T09:56:50Z</time></trkpt><trkpt lat="51.7329818197" lon="-2.4163238145"><ele>-167.51</ele><time>2023-10-04T09:57:13Z</time></trkpt><trkpt lat="51.7330016010" lon="-2.4163316935"><ele>-167.51</ele><time>2023-10-04T09:57:43Z</time></trkpt><trkpt lat="51.7330026906" lon="-2.4163100682"><ele>-167.51</ele><time>2023-10-04T09:58:11Z</time></trkpt><trkpt lat="51.7329767067" lon="-2.4163069669"><ele>-167.51</ele><time>2023-10-04T09:58:37Z</time></trkpt><trkpt lat="51.7329648044" lon="-2.4162939750"><ele>-167.51</ele><time>2023-10-04T09:59:05Z</time></trkpt><trkpt lat="51.7329824064" lon="-2.4162363075"><ele>-167.51</ele><time>2023-10-04T09:59:34Z</time></trkpt><trkpt lat="51.7329809815" lon="-2.4161235709"><ele>-167.51</ele><time>2023-10-04T09:59:56Z</time></trkpt><trkpt lat="51.7329772096" lon="-2.4158529192"><ele>-167.28</ele><time>2023-10-04T10:00:14Z</time></trkpt><trkpt lat="51.7329757847" lon="-2.4156598840"><ele>-167.28</ele><time>2023-10-04T10:00:24Z</time></trkpt><trkpt lat="51.7329425085" lon="-2.4153168965"><ele>-167.36</ele><time>2023-10-04T10:00:39Z</time></trkpt><trkpt lat="51.7329378147" lon="-2.4149845541"><ele>-167.37</ele><time>2023-10-04T10:00:54Z</time></trkpt><trkpt lat="51.7329245713" lon="-2.4146278203"><ele>-167.42</ele><time>2023-10-04T10:01:10Z</time></trkpt><trkpt lat="51.7329334561" lon="-2.4144899379"><ele>-167.59</ele><time>2023-10-04T10:01:17Z</time></trkpt><trkpt lat="51.7329411674" lon="-2.4144005869"><ele>-167.59</ele><time>2023-10-04T10:01:21Z</time></trkpt><trkpt lat="51.7329469509" lon="-2.4142414145"><ele>-167.59</ele><time>2023-10-04T10:01:28Z</time></trkpt><trkpt lat="51.7329214700" lon="-2.4137878697"><ele>-167.50</ele><time>2023-10-04T10:01:47Z</time></trkpt><trkpt lat="51.7329213023" lon="-2.4136565253"><ele>-167.48</ele><time>2023-10-04T10:01:53Z</time></trkpt><trkpt lat="51.7329195421" lon="-2.4133211654"><ele>-167.50</ele><time>2023-10-04T10:02:08Z</time></trkpt><trkpt lat="51.7329208832" lon="-2.4131350871"><ele>-167.59</ele><time>2023-10-04T10:02:17Z</time></trkpt><trkpt lat="51.7329215538" lon="-2.4130900763"><ele>-167.59</ele><time>2023-10-04T10:02:19Z</time></trkpt><trkpt lat="51.7329085618" lon="-2.4127584882"><ele>-167.48</ele><time>2023-10-04T10:02:38Z</time></trkpt><trkpt lat="51.7329135910" lon="-2.4124666303"><ele>-167.50</ele><time>2023-10-04T10:02:57Z</time></trkpt><trkpt lat="51.7329014372" lon="-2.4121811427"><ele>-167.61</ele><time>2023-10-04T10:03:16Z</time></trkpt><trkpt lat="51.7329028621" lon="-2.4119769596"><ele>-167.46</ele><time>2023-10-04T10:03:34Z</time></trkpt><trkpt lat="51.7329148483" lon="-2.4118321203"><ele>-167.41</ele><time>2023-10-04T10:03:49Z</time></trkpt><trkpt lat="51.7328990903" lon="-2.4115745444"><ele>-167.42</ele><time>2023-10-04T10:04:07Z</time></trkpt><trkpt lat="51.7328801472" lon="-2.4112845305"><ele>-167.36</ele><time>2023-10-04T10:04:26Z</time></trkpt><trkpt lat="51.7328857630" lon="-2.4110494182"><ele>-167.38</ele><time>2023-10-04T10:04:41Z</time></trkpt><trkpt lat="51.7328879423" lon="-2.4108459894"><ele>-167.50</ele><time>2023-10-04T10:04:56Z</time></trkpt><trkpt lat="51.7328799795" lon="-2.4106322508"><ele>-167.44</ele><time>2023-10-04T10:05:11Z</time></trkpt><trkpt lat="51.7328939773" lon="-2.4104860704"><ele>-167.53</ele><time>2023-10-04T10:05:30Z</time></trkpt><trkpt lat="51.7328996770" lon="-2.4101585057"><ele>-167.53</ele><time>2023-10-04T10:05:48Z</time></trkpt><trkpt lat="51.7328937259" lon="-2.4098966550"><ele>-167.53</ele><time>2023-10-04T10:06:06Z</time></trkpt><trkpt lat="51.7329006828" lon="-2.4097581860"><ele>-167.53</ele><time>2023-10-04T10:06:23Z</time></trkpt><trkpt lat="51.7328842543" lon="-2.4093950819"><ele>-167.53</ele><time>2023-10-04T10:06:42Z</time></trkpt><trkpt lat="51.7328821588" lon="-2.4091156293"><ele>-167.60</ele><time>2023-10-04T10:06:57Z</time></trkpt><trkpt lat="51.7328970786" lon="-2.4088269565"><ele>-167.45</ele><time>2023-10-04T10:07:17Z</time></trkpt><trkpt lat="51.7329071369" lon="-2.4085367750"><ele>-167.58</ele><time>2023-10-04T10:07:37Z</time></trkpt><trkpt lat="51.7328929715" lon="-2.4082531314"><ele>-167.61</ele><time>2023-10-04T10:07:55Z</time></trkpt><trkpt lat="51.7329028621" lon="-2.4079217948"><ele>-167.87</ele><time>2023-10-04T10:08:17Z</time></trkpt><trkpt lat="51.7328975815" lon="-2.4076040369"><ele>-167.87</ele><time>2023-10-04T10:08:39Z</time></trkpt><trkpt lat="51.7328825779" lon="-2.4072599597"><ele>-167.87</ele><time>2023-10-04T10:09:00Z</time></trkpt><trkpt lat="51.7328674067" lon="-2.4069666769"><ele>-167.87</ele><time>2023-10-04T10:09:17Z</time></trkpt><trkpt lat="51.7328620423" lon="-2.4067126215"><ele>-167.87</ele><time>2023-10-04T10:09:37Z</time></trkpt><trkpt lat="51.7328664847" lon="-2.4064231105"><ele>-167.87</ele><time>2023-10-04T10:09:54Z</time></trkpt><trkpt lat="51.7329016887" lon="-2.4061565660"><ele>-167.87</ele><time>2023-10-04T10:10:13Z</time></trkpt><trkpt lat="51.7329225596" lon="-2.4059137423"><ele>-167.87</ele><time>2023-10-04T10:10:29Z</time></trkpt><trkpt lat="51.7329422571" lon="-2.4056811444"><ele>-167.87</ele><time>2023-10-04T10:10:45Z</time></trkpt><trkpt lat="51.7329782993" lon="-2.4053964950"><ele>-167.87</ele><time>2023-10-04T10:11:05Z</time></trkpt><trkpt lat="51.7330377270" lon="-2.4051301181"><ele>-167.87</ele><time>2023-10-04T10:11:25Z</time></trkpt><trkpt lat="51.7330741882" lon="-2.4048686866"><ele>-167.87</ele><time>2023-10-04T10:11:42Z</time></trkpt><trkpt lat="51.7331611924" lon="-2.4045857135"><ele>-167.87</ele><time>2023-10-04T10:12:02Z</time></trkpt><trkpt lat="51.7331999168" lon="-2.4044117890"><ele>-167.87</ele><time>2023-10-04T10:12:16Z</time></trkpt><trkpt lat="51.7332656309" lon="-2.4041687138"><ele>-167.87</ele><time>2023-10-04T10:12:34Z</time></trkpt><trkpt lat="51.7333199456" lon="-2.4039290752"><ele>-167.87</ele><time>2023-10-04T10:12:51Z</time></trkpt><trkpt lat="51.7333885934" lon="-2.4036811385"><ele>-167.87</ele><time>2023-10-04T10:13:10Z</time></trkpt><trkpt lat="51.7334510386" lon="-2.4034494627"><ele>-167.86</ele><time>2023-10-04T10:13:29Z</time></trkpt><trkpt lat="51.7335285712" lon="-2.4032195471"><ele>-167.86</ele><time>2023-10-04T10:13:47Z</time></trkpt><trkpt lat="51.7336035892" lon="-2.4030159507"><ele>-167.86</ele><time>2023-10-04T10:14:04Z</time></trkpt><trkpt lat="51.7336602509" lon="-2.4028142821"><ele>-167.86</ele><time>2023-10-04T10:14:19Z</time></trkpt><trkpt lat="51.7337099556" lon="-2.4025841150"><ele>-167.86</ele><time>2023-10-04T10:14:38Z</time></trkpt><trkpt lat="51.7337770108" lon="-2.4023460690"><ele>-167.86</ele><time>2023-10-04T10:14:58Z</time></trkpt><trkpt lat="51.7338357680" lon="-2.4021956977"><ele>-167.86</ele><time>2023-10-04T10:15:15Z</time></trkpt><trkpt lat="51.7339012306" lon="-2.4019615911"><ele>-167.86</ele><time>2023-10-04T10:15:35Z</time></trkpt><trkpt lat="51.7339826189" lon="-2.4017148279"><ele>-167.86</ele><time>2023-10-04T10:15:52Z</time></trkpt><trkpt lat="51.7340882309" lon="-2.4014260713"><ele>-167.86</ele><time>2023-10-04T10:16:14Z</time></trkpt><trkpt lat="51.7341883108" lon="-2.4011484627"><ele>-167.79</ele><time>2023-10-04T10:16:32Z</time></trkpt><trkpt lat="51.7342199944" lon="-2.4010168668"><ele>-167.94</ele><time>2023-10-04T10:16:50Z</time></trkpt><trkpt lat="51.7342818528" lon="-2.4008141924"><ele>-167.96</ele><time>2023-10-04T10:17:06Z</time></trkpt><trkpt lat="51.7342938390" lon="-2.4006631505"><ele>-167.96</ele><time>2023-10-04T10:17:21Z</time></trkpt><trkpt lat="51.7344049830" lon="-2.4004624877"><ele>-167.82</ele><time>2023-10-04T10:17:36Z</time></trkpt><trkpt lat="51.7345189769" lon="-2.4001672771"><ele>-167.67</ele><time>2023-10-04T10:17:55Z</time></trkpt><trkpt lat="51.7345557734" lon="-2.4000345916"><ele>-167.58</ele><time>2023-10-04T10:18:09Z</time></trkpt><trkpt lat="51.7346412688" lon="-2.3997835536"><ele>-167.95</ele><time>2023-10-04T10:18:27Z</time></trkpt><trkpt lat="51.7347316258" lon="-2.3996021692"><ele>-168.04</ele><time>2023-10-04T10:18:44Z</time></trkpt><trkpt lat="51.7347977590" lon="-2.3994207848"><ele>-168.04</ele><time>2023-10-04T10:18:59Z</time></trkpt><trkpt lat="51.7348633055" lon="-2.3992676474"><ele>-168.04</ele><time>2023-10-04T10:19:16Z</time></trkpt><trkpt lat="51.7349460348" lon="-2.3990933038"><ele>-168.04</ele><time>2023-10-04T10:19:32Z</time></trkpt><trkpt lat="51.7349963263" lon="-2.3989146855"><ele>-168.04</ele><time>2023-10-04T10:19:46Z</time></trkpt><trkpt lat="51.7350296024" lon="-2.3987514060"><ele>-168.15</ele><time>2023-10-04T10:19:59Z</time></trkpt><trkpt lat="51.7351130024" lon="-2.3985742126"><ele>-168.14</ele><time>2023-10-04T10:20:14Z</time></trkpt><trkpt lat="51.7351749446" lon="-2.3984206561"><ele>-168.07</ele><time>2023-10-04T10:20:28Z</time></trkpt><trkpt lat="51.7352796346" lon="-2.3981845379"><ele>-167.83</ele><time>2023-10-04T10:20:47Z</time></trkpt><trkpt lat="51.7353682313" lon="-2.3979520239"><ele>-167.83</ele><time>2023-10-04T10:21:07Z</time></trkpt><trkpt lat="51.7354578339" lon="-2.3977540433"><ele>-167.60</ele><time>2023-10-04T10:21:26Z</time></trkpt><trkpt lat="51.7355525494" lon="-2.3975633550"><ele>-167.60</ele><time>2023-10-04T10:21:44Z</time></trkpt><trkpt lat="51.7356016673" lon="-2.3974417336"><ele>-167.60</ele><time>2023-10-04T10:22:02Z</time></trkpt><trkpt lat="51.7356815469" lon="-2.3972197808"><ele>-167.60</ele><time>2023-10-04T10:22:21Z</time></trkpt><trkpt lat="51.7357899249" lon="-2.3969742749"><ele>-167.60</ele><time>2023-10-04T10:22:41Z</time></trkpt><trkpt lat="51.7358181719" lon="-2.3968802299"><ele>-167.60</ele><time>2023-10-04T10:23:08Z</time></trkpt><trkpt lat="51.7359106243" lon="-2.3967044614"><ele>-167.60</ele><time>2023-10-04T10:23:27Z</time></trkpt><trkpt lat="51.7359966226" lon="-2.3964664992"><ele>-167.60</ele><time>2023-10-04T10:23:49Z</time></trkpt><trkpt lat="51.7361117899" lon="-2.3962115217"><ele>-167.60</ele><time>2023-10-04T10:24:11Z</time></trkpt><trkpt lat="51.7361827847" lon="-2.3960735556"><ele>-167.60</ele><time>2023-10-04T10:24:28Z</time></trkpt><trkpt lat="51.7362220120" lon="-2.3958858009"><ele>-167.60</ele><time>2023-10-04T10:24:51Z</time></trkpt><trkpt lat="51.7362118699" lon="-2.3958811909"><ele>-167.60</ele><time>2023-10-04T10:25:18Z</time></trkpt><trkpt lat="51.7362117022" lon="-2.3958654329"><ele>-167.60</ele><time>2023-10-04T10:25:40Z</time></trkpt><trkpt lat="51.7362176534" lon="-2.3958500102"><ele>-167.60</ele><time>2023-10-04T10:26:03Z</time></trkpt><trkpt lat="51.7362179887" lon="-2.3958926741"><ele>-167.60</ele><time>2023-10-04T10:26:41Z</time></trkpt><trkpt lat="51.7362706270" lon="-2.3959553707"><ele>-167.60</ele><time>2023-10-04T10:27:05Z</time></trkpt><trkpt lat="51.7363080941" lon="-2.3958308157"><ele>-167.60</ele><time>2023-10-04T10:27:24Z</time></trkpt><trkpt lat="51.7363424599" lon="-2.3957952764"><ele>-167.60</ele><time>2023-10-04T10:27:45Z</time></trkpt><trkpt lat="51.7363605648" lon="-2.3957511876"><ele>-167.60</ele><time>2023-10-04T10:28:17Z</time></trkpt><trkpt lat="51.7364194896" lon="-2.3956261296"><ele>-167.60</ele><time>2023-10-04T10:28:39Z</time></trkpt><trkpt lat="51.7364287097" lon="-2.3954920191"><ele>-167.60</ele><time>2023-10-04T10:28:58Z</time></trkpt><trkpt lat="51.7365317233" lon="-2.3953416478"><ele>-167.60</ele><time>2023-10-04T10:29:19Z</time></trkpt><trkpt lat="51.7366069928" lon="-2.3952092975"><ele>-167.60</ele><time>2023-10-04T10:29:40Z</time></trkpt><trkpt lat="51.7366943322" lon="-2.3950497061"><ele>-167.60</ele><time>2023-10-04T10:29:59Z</time></trkpt><trkpt lat="51.7367679253" lon="-2.3948761169"><ele>-167.60</ele><time>2023-10-04T10:30:17Z</time></trkpt><trkpt lat="51.7368960008" lon="-2.3946535774"><ele>-167.60</ele><time>2023-10-04T10:30:38Z</time></trkpt><trkpt lat="51.7369956616" lon="-2.3944675829"><ele>-167.60</ele><time>2023-10-04T10:30:58Z</time></trkpt><trkpt lat="51.7370506469" lon="-2.3941946682"><ele>-167.60</ele><time>2023-10-04T10:31:19Z</time></trkpt><trkpt lat="51.7371894512" lon="-2.3939882219"><ele>-167.60</ele><time>2023-10-04T10:31:42Z</time></trkpt><trkpt lat="51.7372896150" lon="-2.3938173987"><ele>-167.60</ele><time>2023-10-04T10:32:01Z</time></trkpt><trkpt lat="51.7374145053" lon="-2.3936044984"><ele>-167.60</ele><time>2023-10-04T10:32:21Z</time></trkpt><trkpt lat="51.7375116516" lon="-2.3933909275"><ele>-167.59</ele><time>2023-10-04T10:32:40Z</time></trkpt><trkpt lat="51.7376191076" lon="-2.3931692261"><ele>-167.59</ele><time>2023-10-04T10:33:00Z</time></trkpt><trkpt lat="51.7377191875" lon="-2.3929590080"><ele>-167.59</ele><time>2023-10-04T10:33:18Z</time></trkpt><trkpt lat="51.7377786990" lon="-2.3927705828"><ele>-167.59</ele><time>2023-10-04T10:33:36Z</time></trkpt><trkpt lat="51.7378938664" lon="-2.3925637174"><ele>-167.59</ele><time>2023-10-04T10:33:56Z</time></trkpt><trkpt lat="51.7380009871" lon="-2.3923527449"><ele>-167.49</ele><time>2023-10-04T10:34:14Z</time></trkpt><trkpt lat="51.7380717304" lon="-2.3921938241"><ele>-167.15</ele><time>2023-10-04T10:34:31Z</time></trkpt><trkpt lat="51.7381526157" lon="-2.3919716198"><ele>-167.36</ele><time>2023-10-04T10:34:50Z</time></trkpt><trkpt lat="51.7382239457" lon="-2.3918263614"><ele>-166.86</ele><time>2023-10-04T10:35:08Z</time></trkpt><trkpt lat="51.7383378558" lon="-2.3915863875"><ele>-167.14</ele><time>2023-10-04T10:35:29Z</time></trkpt><trkpt lat="51.7383925896" lon="-2.3914708011"><ele>-167.38</ele><time>2023-10-04T10:35:49Z</time></trkpt><trkpt lat="51.7384451441" lon="-2.3912656959"><ele>-167.21</ele><time>2023-10-04T10:36:06Z</time></trkpt><trkpt lat="51.7385357525" lon="-2.3911016621"><ele>-167.25</ele><time>2023-10-04T10:36:22Z</time></trkpt><trkpt lat="51.7386525124" lon="-2.3909195233"><ele>-167.25</ele><time>2023-10-04T10:36:42Z</time></trkpt><trkpt lat="51.7387787439" lon="-2.3907132447"><ele>-167.25</ele><time>2023-10-04T10:37:01Z</time></trkpt><trkpt lat="51.7388757225" lon="-2.3905311059"><ele>-167.25</ele><time>2023-10-04T10:37:18Z</time></trkpt><trkpt lat="51.7389298696" lon="-2.3904166091"><ele>-167.25</ele><time>2023-10-04T10:37:35Z</time></trkpt><trkpt lat="51.7389829271" lon="-2.3902756255"><ele>-167.25</ele><time>2023-10-04T10:37:52Z</time></trkpt><trkpt lat="51.7391016148" lon="-2.3901156150"><ele>-167.25</ele><time>2023-10-04T10:38:10Z</time></trkpt><trkpt lat="51.7391650658" lon="-2.3900020402"><ele>-167.25</ele><time>2023-10-04T10:38:27Z</time></trkpt><trkpt lat="51.7392019462" lon="-2.3899250943"><ele>-167.25</ele><time>2023-10-04T10:38:46Z</time></trkpt><trkpt lat="51.7392262537" lon="-2.3897346575"><ele>-167.25</ele><time>2023-10-04T10:39:05Z</time></trkpt><trkpt lat="51.7392964102" lon="-2.3896540236"><ele>-167.25</ele><time>2023-10-04T10:39:25Z</time></trkpt><trkpt lat="51.7393734399" lon="-2.3894750699"><ele>-167.25</ele><time>2023-10-04T10:39:47Z</time></trkpt><trkpt lat="51.7394877691" lon="-2.3893228546"><ele>-167.25</ele><time>2023-10-04T10:40:05Z</time></trkpt><trkpt lat="51.7395780422" lon="-2.3891469184"><ele>-167.25</ele><time>2023-10-04T10:40:22Z</time></trkpt><trkpt lat="51.7397220433" lon="-2.3888943717"><ele>-167.25</ele><time>2023-10-04T10:40:45Z</time></trkpt><trkpt lat="51.7398431618" lon="-2.3886535596"><ele>-167.25</ele><time>2023-10-04T10:41:08Z</time></trkpt><trkpt lat="51.7399725784" lon="-2.3884275835"><ele>-167.51</ele><time>2023-10-04T10:41:28Z</time></trkpt><trkpt lat="51.7400245462" lon="-2.3883279227"><ele>-167.59</ele><time>2023-10-04T10:41:37Z</time></trkpt><trkpt lat="51.7401519511" lon="-2.3880517390"><ele>-167.82</ele><time>2023-10-04T10:42:00Z</time></trkpt><trkpt lat="51.7402414698" lon="-2.3879008647"><ele>-167.97</ele><time>2023-10-04T10:42:16Z</time></trkpt><trkpt lat="51.7403455731" lon="-2.3876911495"><ele>-167.63</ele><time>2023-10-04T10:42:34Z</time></trkpt><trkpt lat="51.7404448148" lon="-2.3874899000"><ele>-167.72</ele><time>2023-10-04T10:42:51Z</time></trkpt><trkpt lat="51.7405491695" lon="-2.3872870579"><ele>-167.63</ele><time>2023-10-04T10:43:11Z</time></trkpt><trkpt lat="51.7406489979" lon="-2.3870746605"><ele>-167.58</ele><time>2023-10-04T10:43:33Z</time></trkpt><trkpt lat="51.7407650035" lon="-2.3868554737"><ele>-167.37</ele><time>2023-10-04T10:43:51Z</time></trkpt><trkpt lat="51.7409092560" lon="-2.3865465168"><ele>-167.93</ele><time>2023-10-04T10:44:15Z</time></trkpt><trkpt lat="51.7409955896" lon="-2.3863687366"><ele>-167.68</ele><time>2023-10-04T10:44:31Z</time></trkpt><trkpt lat="51.7410724517" lon="-2.3862301838"><ele>-167.34</ele><time>2023-10-04T10:44:47Z</time></trkpt><trkpt lat="51.7411826737" lon="-2.3860130087"><ele>-167.34</ele><time>2023-10-04T10:45:05Z</time></trkpt><trkpt lat="51.7412761319" lon="-2.3858460411"><ele>-167.14</ele><time>2023-10-04T10:45:21Z</time></trkpt><trkpt lat="51.7413394153" lon="-2.3856945802"><ele>-167.80</ele><time>2023-10-04T10:45:36Z</time></trkpt><trkpt lat="51.7413811572" lon="-2.3856055643"><ele>-167.08</ele><time>2023-10-04T10:45:42Z</time></trkpt><trkpt lat="51.7414806504" lon="-2.3854142893"><ele>-167.49</ele><time>2023-10-04T10:46:02Z</time></trkpt><trkpt lat="51.7414935585" lon="-2.3853968550"><ele>-167.69</ele><time>2023-10-04T10:46:07Z</time></trkpt><trkpt lat="51.7415798083" lon="-2.3852454778"><ele>-167.28</ele><time>2023-10-04T10:46:21Z</time></trkpt><trkpt lat="51.7415997572" lon="-2.3851954378"><ele>-167.12</ele><time>2023-10-04T10:46:24Z</time></trkpt><trkpt lat="51.7417174391" lon="-2.3849507701"><ele>-167.12</ele><time>2023-10-04T10:46:42Z</time></trkpt><trkpt lat="51.7418418266" lon="-2.3847154900"><ele>-167.15</ele><time>2023-10-04T10:47:01Z</time></trkpt><trkpt lat="51.7418529745" lon="-2.3846944515"><ele>-168.40</ele><time>2023-10-04T10:47:07Z</time></trkpt><trkpt lat="51.7419065349" lon="-2.3845684715"><ele>-168.40</ele><time>2023-10-04T10:47:28Z</time></trkpt><trkpt lat="51.7420189362" lon="-2.3843437526"><ele>-166.98</ele><time>2023-10-04T10:47:48Z</time></trkpt><trkpt lat="51.7421233747" lon="-2.3841471132"><ele>-167.56</ele><time>2023-10-04T10:48:06Z</time></trkpt><trkpt lat="51.7422348540" lon="-2.3838495556"><ele>-166.93</ele><time>2023-10-04T10:48:31Z</time></trkpt><trkpt lat="51.7423396278" lon="-2.3836638127"><ele>-166.99</ele><time>2023-10-04T10:48:49Z</time></trkpt><trkpt lat="51.7424328346" lon="-2.3835119326"><ele>-166.59</ele><time>2023-10-04T10:49:04Z</time></trkpt><trkpt lat="51.7425129656" lon="-2.3833598010"><ele>-166.38</ele><time>2023-10-04T10:49:19Z</time></trkpt><trkpt lat="51.7425309028" lon="-2.3833107669"><ele>-166.38</ele><time>2023-10-04T10:49:23Z</time></trkpt><trkpt lat="51.7426270433" lon="-2.3831089307"><ele>-166.47</ele><time>2023-10-04T10:49:40Z</time></trkpt><trkpt lat="51.7426782567" lon="-2.3829868063"><ele>-166.53</ele><time>2023-10-04T10:49:54Z</time></trkpt><trkpt lat="51.7427370138" lon="-2.3828839604"><ele>-166.48</ele><time>2023-10-04T10:50:11Z</time></trkpt><trkpt lat="51.7427562084" lon="-2.3828811944"><ele>-166.16</ele><time>2023-10-04T10:50:36Z</time></trkpt><trkpt lat="51.7427610699" lon="-2.3828712199"><ele>-165.98</ele><time>2023-10-04T10:51:10Z</time></trkpt><trkpt lat="51.7427500058" lon="-2.3828645982"><ele>-165.98</ele><time>2023-10-04T10:51:35Z</time></trkpt><trkpt lat="51.7427567113" lon="-2.3828894086"><ele>-165.98</ele><time>2023-10-04T10:51:55Z</time></trkpt><trkpt lat="51.7427409533" lon="-2.3828877322"><ele>-165.98</ele><time>2023-10-04T10:52:09Z</time></trkpt><trkpt lat="51.7427215073" lon="-2.3828945216"><ele>-165.98</ele><time>2023-10-04T10:52:36Z</time></trkpt><trkpt lat="51.7427276261" lon="-2.3829004727"><ele>-165.98</ele><time>2023-10-04T10:53:14Z</time></trkpt><trkpt lat="51.7427395284" lon="-2.3829015624"><ele>-165.98</ele><time>2023-10-04T10:53:39Z</time></trkpt><trkpt lat="51.7427461501" lon="-2.3829135485"><ele>-165.98</ele><time>2023-10-04T10:54:00Z</time></trkpt><trkpt lat="51.7427525204" lon="-2.3829092737"><ele>-165.98</ele><time>2023-10-04T10:54:25Z</time></trkpt><trkpt lat="51.7427464016" lon="-2.3829190806"><ele>-165.98</ele><time>2023-10-04T10:54:52Z</time></trkpt><trkpt lat="51.7427635007" lon="-2.3829169013"><ele>-165.98</ele><time>2023-10-04T10:55:18Z</time></trkpt><trkpt lat="51.7427531909" lon="-2.3829065077"><ele>-165.98</ele><time>2023-10-04T10:55:50Z</time></trkpt><trkpt lat="51.7427522689" lon="-2.3829079326"><ele>-165.98</ele><time>2023-10-04T10:56:18Z</time></trkpt><trkpt lat="51.7427429650" lon="-2.3828789312"><ele>-165.98</ele><time>2023-10-04T10:56:55Z</time></trkpt><trkpt lat="51.7427311465" lon="-2.3828500975"><ele>-165.98</ele><time>2023-10-04T10:57:28Z</time></trkpt><trkpt lat="51.7427191604" lon="-2.3828555457"><ele>-165.98</ele><time>2023-10-04T10:57:55Z</time></trkpt><trkpt lat="51.7427086830" lon="-2.3828419670"><ele>-165.98</ele><time>2023-10-04T10:58:26Z</time></trkpt><trkpt lat="51.7427338287" lon="-2.3828757461"><ele>-165.98</ele><time>2023-10-04T10:59:15Z</time></trkpt><trkpt lat="51.7427384388" lon="-2.3828448169"><ele>-165.98</ele><time>2023-10-04T10:59:49Z</time></trkpt><trkpt lat="51.7427297216" lon="-2.3828899115"><ele>-165.98</ele><time>2023-10-04T11:00:10Z</time></trkpt><trkpt lat="51.7427008040" lon="-2.3829673603"><ele>-165.98</ele><time>2023-10-04T11:00:28Z</time></trkpt><trkpt lat="51.7426277976" lon="-2.3831329029"><ele>-165.98</ele><time>2023-10-04T11:00:46Z</time></trkpt><trkpt lat="51.7425325792" lon="-2.3833007924"><ele>-165.99</ele><time>2023-10-04T11:01:03Z</time></trkpt><trkpt lat="51.7425058410" lon="-2.3833440430"><ele>-165.99</ele><time>2023-10-04T11:01:18Z</time></trkpt><trkpt lat="51.7424415518" lon="-2.3834762257"><ele>-165.99</ele><time>2023-10-04T11:01:34Z</time></trkpt><trkpt lat="51.7423567269" lon="-2.3836727813"><ele>-165.99</ele><time>2023-10-04T11:01:56Z</time></trkpt><trkpt lat="51.7423506081" lon="-2.3837138526"><ele>-165.99</ele><time>2023-10-04T11:02:14Z</time></trkpt><trkpt lat="51.7423522845" lon="-2.3837140203"><ele>-165.99</ele><time>2023-10-04T11:02:48Z</time></trkpt><trkpt lat="51.7422612570" lon="-2.3838871904"><ele>-165.99</ele><time>2023-10-04T11:03:07Z</time></trkpt><trkpt lat="51.7422538809" lon="-2.3839120008"><ele>-165.99</ele><time>2023-10-04T11:03:30Z</time></trkpt><trkpt lat="51.7421893403" lon="-2.3840104043"><ele>-165.99</ele><time>2023-10-04T11:03:46Z</time></trkpt><trkpt lat="51.7421363667" lon="-2.3841320258"><ele>-165.99</ele><time>2023-10-04T11:04:02Z</time></trkpt><trkpt lat="51.7420644499" lon="-2.3842353746"><ele>-165.99</ele><time>2023-10-04T11:04:23Z</time></trkpt><trkpt lat="51.7419859953" lon="-2.3843867518"><ele>-165.99</ele><time>2023-10-04T11:04:40Z</time></trkpt><trkpt lat="51.7418884300" lon="-2.3845373746"><ele>-165.99</ele><time>2023-10-04T11:04:56Z</time></trkpt><trkpt lat="51.7417922057" lon="-2.3847287335"><ele>-165.99</ele><time>2023-10-04T11:05:12Z</time></trkpt><trkpt lat="51.7417277489" lon="-2.3848765902"><ele>-165.99</ele><time>2023-10-04T11:05:27Z</time></trkpt><trkpt lat="51.7416285072" lon="-2.3850764986"><ele>-165.99</ele><time>2023-10-04T11:05:47Z</time></trkpt><trkpt lat="51.7415233981" lon="-2.3852808494"><ele>-165.99</ele><time>2023-10-04T11:06:06Z</time></trkpt><trkpt lat="51.7414480448" lon="-2.3854389321"><ele>-164.11</ele><time>2023-10-04T11:06:25Z</time></trkpt><trkpt lat="51.7413453665" lon="-2.3856384214"><ele>-163.75</ele><time>2023-10-04T11:06:43Z</time></trkpt><trkpt lat="51.7412609607" lon="-2.3858058918"><ele>-163.53</ele><time>2023-10-04T11:07:00Z</time></trkpt><trkpt lat="51.7411955819" lon="-2.3859376553"><ele>-163.73</ele><time>2023-10-04T11:07:23Z</time></trkpt><trkpt lat="51.7411073204" lon="-2.3861142620"><ele>-163.69</ele><time>2023-10-04T11:07:41Z</time></trkpt><trkpt lat="51.7409914825" lon="-2.3863238934"><ele>-163.66</ele><time>2023-10-04T11:08:01Z</time></trkpt><trkpt lat="51.7409111839" lon="-2.3864923697"><ele>-163.88</ele><time>2023-10-04T11:08:19Z</time></trkpt><trkpt lat="51.7408493254" lon="-2.3866102193"><ele>-163.88</ele><time>2023-10-04T11:08:37Z</time></trkpt><trkpt lat="51.7407164723" lon="-2.3868365306"><ele>-163.88</ele><time>2023-10-04T11:08:58Z</time></trkpt><trkpt lat="51.7406251933" lon="-2.3870491795"><ele>-163.37</ele><time>2023-10-04T11:09:16Z</time></trkpt><trkpt lat="51.7405245267" lon="-2.3872624151"><ele>-163.73</ele><time>2023-10-04T11:09:37Z</time></trkpt><trkpt lat="51.7404219322" lon="-2.3874681909"><ele>-163.71</ele><time>2023-10-04T11:09:56Z</time></trkpt><trkpt lat="51.7403366044" lon="-2.3876263574"><ele>-163.49</ele><time>2023-10-04T11:10:10Z</time></trkpt><trkpt lat="51.7402491812" lon="-2.3878069874"><ele>-163.94</ele><time>2023-10-04T11:10:29Z</time></trkpt><trkpt lat="51.7402072717" lon="-2.3879047204"><ele>-163.64</ele><time>2023-10-04T11:10:56Z</time></trkpt><trkpt lat="51.7401138134" lon="-2.3880854342"><ele>-163.91</ele><time>2023-10-04T11:11:13Z</time></trkpt><trkpt lat="51.7400092073" lon="-2.3882740270"><ele>-164.04</ele><time>2023-10-04T11:11:31Z</time></trkpt><trkpt lat="51.7399089597" lon="-2.3884627875"><ele>-164.00</ele><time>2023-10-04T11:11:50Z</time></trkpt><trkpt lat="51.7398228776" lon="-2.3886776157"><ele>-163.74</ele><time>2023-10-04T11:12:07Z</time></trkpt><trkpt lat="51.7397209536" lon="-2.3888459243"><ele>-163.91</ele><time>2023-10-04T11:12:25Z</time></trkpt><trkpt lat="51.7396108992" lon="-2.3890556395"><ele>-164.10</ele><time>2023-10-04T11:12:44Z</time></trkpt><trkpt lat="51.7395192850" lon="-2.3892154824"><ele>-164.11</ele><time>2023-10-04T11:12:59Z</time></trkpt><trkpt lat="51.7394502182" lon="-2.3893775884"><ele>-164.35</ele><time>2023-10-04T11:13:16Z</time></trkpt><trkpt lat="51.7393524852" lon="-2.3895754013"><ele>-164.39</ele><time>2023-10-04T11:13:33Z</time></trkpt><trkpt lat="51.7392491363" lon="-2.3897675984"><ele>-164.03</ele><time>2023-10-04T11:13:51Z</time></trkpt><trkpt lat="51.7391524091" lon="-2.3899783194"><ele>-163.89</ele><time>2023-10-04T11:14:10Z</time></trkpt><trkpt lat="51.7390523292" lon="-2.3901410960"><ele>-163.85</ele><time>2023-10-04T11:14:26Z</time></trkpt><trkpt lat="51.7389614694" lon="-2.3903526552"><ele>-163.95</ele><time>2023-10-04T11:14:44Z</time></trkpt><trkpt lat="51.7388464697" lon="-2.3905469477"><ele>-163.94</ele><time>2023-10-04T11:15:03Z</time></trkpt><trkpt lat="51.7387363315" lon="-2.3907600157"><ele>-163.93</ele><time>2023-10-04T11:15:21Z</time></trkpt><trkpt lat="51.7386501655" lon="-2.3909255583"><ele>-163.90</ele><time>2023-10-04T11:15:39Z</time></trkpt><trkpt lat="51.7385573778" lon="-2.3911163304"><ele>-163.75</ele><time>2023-10-04T11:15:57Z</time></trkpt><trkpt lat="51.7384756543" lon="-2.3912983853"><ele>-163.63</ele><time>2023-10-04T11:16:13Z</time></trkpt><trkpt lat="51.7383775022" lon="-2.3914983775"><ele>-163.69</ele><time>2023-10-04T11:16:31Z</time></trkpt><trkpt lat="51.7382710520" lon="-2.3917014711"><ele>-163.76</ele><time>2023-10-04T11:16:51Z</time></trkpt><trkpt lat="51.7381887417" lon="-2.3918893933"><ele>-163.77</ele><time>2023-10-04T11:17:10Z</time></trkpt><trkpt lat="51.7380988877" lon="-2.3920830991"><ele>-163.43</ele><time>2023-10-04T11:17:28Z</time></trkpt><trkpt lat="51.7380385380" lon="-2.3922655731"><ele>-163.99</ele><time>2023-10-04T11:17:45Z</time></trkpt><trkpt lat="51.7380352691" lon="-2.3922633938"><ele>-163.48</ele><time>2023-10-04T11:18:10Z</time></trkpt><trkpt lat="51.7379408050" lon="-2.3924410902"><ele>-163.48</ele><time>2023-10-04T11:18:28Z</time></trkpt><trkpt lat="51.7378573213" lon="-2.3926393222"><ele>-163.48</ele><time>2023-10-04T11:18:47Z</time></trkpt><trkpt lat="51.7377689760" lon="-2.3928251490"><ele>-163.48</ele><time>2023-10-04T11:19:03Z</time></trkpt><trkpt lat="51.7376888450" lon="-2.3929585889"><ele>-163.80</ele><time>2023-10-04T11:19:20Z</time></trkpt><trkpt lat="51.7376534734" lon="-2.3930256441"><ele>-163.38</ele><time>2023-10-04T11:19:27Z</time></trkpt><trkpt lat="51.7376033496" lon="-2.3931123130"><ele>-163.61</ele><time>2023-10-04T11:19:46Z</time></trkpt><trkpt lat="51.7375402339" lon="-2.3932798672"><ele>-163.57</ele><time>2023-10-04T11:20:04Z</time></trkpt><trkpt lat="51.7374305986" lon="-2.3935091961"><ele>-163.67</ele><time>2023-10-04T11:20:20Z</time></trkpt><trkpt lat="51.7373216338" lon="-2.3937827814"><ele>-163.78</ele><time>2023-10-04T11:20:37Z</time></trkpt><trkpt lat="51.7372258287" lon="-2.3939981125"><ele>-163.72</ele><time>2023-10-04T11:20:53Z</time></trkpt><trkpt lat="51.7371208034" lon="-2.3942038044"><ele>-163.96</ele><time>2023-10-04T11:21:12Z</time></trkpt><trkpt lat="51.7370165326" lon="-2.3943758849"><ele>-163.60</ele><time>2023-10-04T11:21:30Z</time></trkpt><trkpt lat="51.7369514052" lon="-2.3945215624"><ele>-163.89</ele><time>2023-10-04T11:21:46Z</time></trkpt><trkpt lat="51.7368914746" lon="-2.3946402501"><ele>-163.89</ele><time>2023-10-04T11:22:02Z</time></trkpt><trkpt lat="51.7368687596" lon="-2.3946896195"><ele>-163.89</ele><time>2023-10-04T11:22:06Z</time></trkpt><trkpt lat="51.7367742117" lon="-2.3949456867"><ele>-163.66</ele><time>2023-10-04T11:22:22Z</time></trkpt><trkpt lat="51.7366944999" lon="-2.3951401468"><ele>-163.84</ele><time>2023-10-04T11:22:36Z</time></trkpt><trkpt lat="51.7365921568" lon="-2.3953236267"><ele>-163.68</ele><time>2023-10-04T11:22:54Z</time></trkpt><trkpt lat="51.7364805099" lon="-2.3955138959"><ele>-163.62</ele><time>2023-10-04T11:23:12Z</time></trkpt><trkpt lat="51.7363742273" lon="-2.3957181629"><ele>-163.44</ele><time>2023-10-04T11:23:29Z</time></trkpt><trkpt lat="51.7363143805" lon="-2.3958112020"><ele>-163.29</ele><time>2023-10-04T11:23:49Z</time></trkpt><trkpt lat="51.7362029012" lon="-2.3957831226"><ele>-162.60</ele><time>2023-10-04T11:24:10Z</time></trkpt><trkpt lat="51.7361210939" lon="-2.3957132176"><ele>-161.53</ele><time>2023-10-04T11:24:25Z</time></trkpt><trkpt lat="51.7360273842" lon="-2.3955874052"><ele>-161.86</ele><time>2023-10-04T11:24:42Z</time></trkpt><trkpt lat="51.7359318305" lon="-2.3954211082"><ele>-163.52</ele><time>2023-10-04T11:25:01Z</time></trkpt><trkpt lat="51.7358439043" lon="-2.3952376284"><ele>-164.10</ele><time>2023-10-04T11:25:20Z</time></trkpt><trkpt lat="51.7357408907" lon="-2.3952790350"><ele>-164.80</ele><time>2023-10-04T11:25:38Z</time></trkpt><trkpt lat="51.7356364522" lon="-2.3953934480"><ele>-165.67</ele><time>2023-10-04T11:25:55Z</time></trkpt><trkpt lat="51.7356314231" lon="-2.3953983933"><ele>-165.22</ele><time>2023-10-04T11:26:12Z</time></trkpt></trkseg></trk></gpx>